Time;durP1;ratioP1;P1;durP2;ratioP2;P2;SDS_P1;SDS_P2;PMS_P1;PMS_P2;Temp;Humidity;BMP_temperature;BMP_pressure;BME280_temperature;BME280_humidity;BME280_pressure;Samples;Min_cycle;Max_cycle;Signal;HPM_P1;HPM_P2
2021/11/19 00:08:46;;;;;;;23.50;12.60;;;;;;;6.98;77.80;99036.44;423047;1303;99306;-41
2021/11/19 00:18:54;;;;;;;23.20;11.50;;;;;;;7.02;77.66;99030.94;422621;1303;107749;-41
2021/11/19 00:29:02;;;;;;;25.70;13.70;;;;;;;6.96;77.59;99019.80;422699;1305;99276;-41
2021/11/19 00:39:14;;;;;;;19.90;10.60;;;;;;;6.86;77.66;99019.19;422858;1303;112512;-41
2021/11/19 00:49:26;;;;;;;14.50;8.90;;;;;;;6.87;77.77;99029.57;422421;1306;108872;-41
2021/11/19 00:59:35;;;;;;;20.30;10.30;;;;;;;6.92;77.99;99018.39;422405;1306;98879;-40
2021/11/19 01:09:46;;;;;;;17.20;10.00;;;;;;;6.90;78.05;99009.16;422606;1304;108967;-41
2021/11/19 01:19:57;;;;;;;16.10;8.80;;;;;;;6.84;78.11;99000.70;418743;1304;5629136;-41
2021/11/19 01:30:07;;;;;;;17.80;9.10;;;;;;;6.77;78.24;99000.60;422404;1306;112543;-41
2021/11/19 01:40:17;;;;;;;17.30;9.30;;;;;;;6.75;78.55;98994.89;422878;1304;108058;-42
2021/11/19 01:50:25;;;;;;;21.50;10.80;;;;;;;6.58;78.92;98994.28;422611;1304;99945;-42
2021/11/19 02:00:38;;;;;;;21.60;11.30;;;;;;;6.39;79.24;98977.00;422791;1304;109739;-41
2021/11/19 02:10:46;;;;;;;19.70;10.60;;;;;;;6.25;79.51;98958.39;422176;1304;98910;-40
2021/11/19 02:20:55;;;;;;;14.90;9.70;;;;;;;6.18;80.01;98953.72;423414;1294;112607;-40
2021/11/19 02:31:08;;;;;;;17.70;10.50;;;;;;;6.17;80.28;98940.78;422500;1305;108891;-41
2021/11/19 02:41:18;;;;;;;14.20;9.30;;;;;;;6.18;80.65;98936.19;422422;1305;99373;-42
2021/11/19 02:51:29;;;;;;;17.20;9.50;;;;;;;6.13;81.01;98916.86;422646;1305;108799;-41
2021/11/19 03:01:38;;;;;;;14.90;8.60;;;;;;;6.12;81.44;98907.94;422272;1305;99302;-40
2021/11/19 03:11:45;;;;;;;;;;;;;;;6.11;81.62;98907.65;422912;1305;112241;-41
2021/11/19 03:21:53;;;;;;;12.20;8.60;;;;;;;6.15;81.87;98909.23;422487;1305;108823;-41
2021/11/19 03:32:02;;;;;;;8.80;6.20;;;;;;;6.10;81.96;98909.91;422351;1305;99308;-40
2021/11/19 03:52:18;;;;;;;8.50;6.20;;;;;;;6.09;82.93;98916.37;422605;1305;99875;-42
2021/11/19 04:02:29;;;;;;;7.70;6.30;;;;;;;6.16;83.20;98896.27;422440;1305;111945;-43
2021/11/19 04:12:37;;;;;;;7.10;5.50;;;;;;;6.18;83.36;98893.37;422603;1305;108762;-41
2021/11/19 04:22:44;;;;;;;8.70;7.00;;;;;;;6.22;83.49;98887.61;422266;1305;99260;-40
2021/11/19 04:32:52;;;;;;;9.80;6.20;;;;;;;6.24;83.68;98880.54;422707;1306;108767;-40
2021/11/19 04:42:59;;;;;;;7.10;5.80;;;;;;;6.31;83.60;98874.34;422474;1305;100030;-41
2021/11/19 04:53:09;;;;;;;8.10;5.00;;;;;;;6.34;84.18;98864.33;422640;1305;113060;-40
2021/11/19 05:03:17;;;;;;;5.60;4.70;;;;;;;6.38;84.37;98876.59;422431;1305;108870;-41
2021/11/19 05:13:25;;;;;;;4.90;2.80;;;;;;;6.44;84.29;98887.66;422564;1305;99299;-40
2021/11/19 05:23:33;;;;;;;3.20;2.90;;;;;;;6.48;84.36;98895.42;422483;1305;108863;-41
2021/11/19 05:33:42;;;;;;;4.70;2.40;;;;;;;6.53;84.65;98889.17;422596;1305;98905;-41
2021/11/19 05:43:52;;;;;;;3.20;2.80;;;;;;;6.55;84.76;98892.58;422364;1305;114438;-42
2021/11/19 05:53:59;;;;;;;2.70;2.50;;;;;;;6.63;84.96;98882.17;422367;1305;109047;-41
2021/11/19 06:04:06;;;;;;;5.00;1.40;;;;;;;6.68;85.15;98885.07;422480;1305;98476;-41
2021/11/19 06:14:17;;;;;;;4.30;1.60;;;;;;;6.76;85.45;98897.05;422360;1305;109063;-41
2021/11/19 06:24:28;;;;;;;57.30;35.20;;;;;;;6.82;85.70;98901.83;422375;1305;98351;-41
2021/11/19 06:34:35;;;;;;;2.80;1.90;;;;;;;6.89;85.87;98909.38;422454;1307;112482;-42
2021/11/19 06:44:44;;;;;;;2.00;1.00;;;;;;;6.94;86.21;98919.79;422390;1306;108798;-40
2021/11/19 06:54:52;;;;;;;5.50;1.70;;;;;;;7.00;86.83;98923.19;422263;1308;99313;-41
2021/11/19 07:04:59;;;;;;;5.20;2.60;;;;;;;7.05;86.55;98929.67;422536;1306;108887;-42
2021/11/19 07:15:04;;;;;;;1.60;1.20;;;;;;;7.13;86.56;98935.96;421977;1308;99611;-42
2021/11/19 07:25:15;;;;;;;14.70;7.30;;;;;;;7.19;86.51;98930.18;422493;1305;112746;-41
2021/11/19 07:35:22;;;;;;;3.70;2.90;;;;;;;7.26;86.73;98931.31;422209;1305;108861;-40
2021/11/19 07:45:35;;;;;;;7.80;6.20;;;;;;;7.32;86.89;98943.48;422686;1305;99986;-40
2021/11/19 07:55:43;;;;;;;20.80;15.40;;;;;;;7.42;87.00;98956.44;422129;1305;108923;-41
2021/11/19 08:05:53;;;;;;;15.80;9.60;;;;;;;7.51;86.97;98970.15;422387;1305;99279;-42
2021/11/19 08:16:00;;;;;;;10.80;6.00;;;;;;;7.61;87.08;98973.54;422336;1305;111438;-42
2021/11/19 08:26:13;;;;;;;7.80;5.50;;;;;;;7.69;87.37;98967.45;422280;1305;108873;-41
2021/11/19 08:36:24;;;;;;;14.40;9.90;;;;;;;7.79;87.48;98964.86;422037;1305;98099;-40
2021/11/19 08:46:35;;;;;;;9.00;6.10;;;;;;;7.91;87.60;98963.71;422418;1305;108912;-41
2021/11/19 08:56:43;;;;;;;21.70;14.60;;;;;;;8.06;87.87;98975.33;422035;1305;98881;-41
2021/11/19 09:06:50;;;;;;;8.20;5.70;;;;;;;8.19;87.90;98986.64;422397;1305;112674;-42
2021/11/19 09:16:57;;;;;;;6.90;5.20;;;;;;;8.26;88.10;98988.66;418391;1305;5385930;-41
2021/11/19 09:37:18;;;;;;;8.70;7.30;;;;;;;8.37;88.26;98983.45;422183;1305;108796;-41
2021/11/19 09:47:36;;;;;;;9.50;8.50;;;;;;;8.41;88.64;98970.75;422506;1305;98939;-40
2021/11/19 09:58:11;;;;;;;7.60;6.10;;;;;;;8.44;88.65;98964.70;422278;1305;109116;-41
2021/11/19 10:08:49;;;;;;;10.70;8.10;;;;;;;8.46;88.83;98973.20;422311;1305;99331;-41
2021/11/19 10:18:53;;;;;;;14.30;10.70;;;;;;;8.44;89.10;98976.86;422361;1308;112585;-41
2021/11/19 10:29:02;;;;;;;13.10;10.10;;;;;;;8.43;89.28;98968.96;422616;1305;109000;-41
2021/11/19 10:39:37;;;;;;;13.80;10.90;;;;;;;8.46;89.40;98960.74;422680;1305;99540;-41
2021/11/19 10:50:11;;;;;;;17.30;12.10;;;;;;;8.52;89.75;98950.69;422359;1305;108984;-42
2021/11/19 11:00:33;;;;;;;9.50;8.20;;;;;;;8.57;89.90;98949.95;421956;1305;98197;-40
2021/11/19 11:10:46;;;;;;;7.50;6.50;;;;;;;8.65;89.79;98942.32;422385;1306;112568;-41
2021/11/19 11:21:19;;;;;;;8.60;6.90;;;;;;;8.73;89.69;98940.58;422603;1305;107869;-41
2021/11/19 11:31:33;;;;;;;7.20;5.70;;;;;;;8.75;89.80;98952.06;422210;1305;99277;-41
2021/11/19 11:41:43;;;;;;;10.10;6.90;;;;;;;8.80;90.07;98942.05;422370;1305;108941;-41
2021/11/19 11:51:56;;;;;;;8.40;5.40;;;;;;;8.90;90.12;98929.38;422457;1305;98070;-41
2021/11/19 12:02:20;;;;;;;6.20;4.60;;;;;;;9.01;90.15;98916.67;422297;1305;112437;-40
2021/11/19 12:12:32;;;;;;;6.90;5.20;;;;;;;9.08;90.00;98907.73;422569;1305;108518;-41
2021/11/19 12:22:40;;;;;;;5.80;4.60;;;;;;;9.14;89.95;98913.13;422412;1305;98060;-41
2021/11/19 12:32:51;;;;;;;8.20;5.90;;;;;;;9.08;90.05;98925.06;422394;1305;109016;-41
2021/11/19 12:42:56;;;;;;;6.60;5.30;;;;;;;9.07;90.10;98926.57;422320;1305;99287;-40
2021/11/19 13:03:16;;;;;;;6.70;5.30;;;;;;;9.05;90.16;98932.31;422332;1305;108985;-41
2021/11/19 13:13:34;;;;;;;8.50;5.40;;;;;;;9.06;90.11;98922.11;422305;1305;99682;-41
2021/11/19 13:23:44;;;;;;;10.80;6.20;;;;;;;9.06;90.13;98924.80;422434;1305;109034;-42
2021/11/19 13:34:22;;;;;;;6.10;5.20;;;;;;;9.05;90.19;98920.49;422204;1305;99340;-41
2021/11/19 13:44:52;;;;;;;12.90;7.30;;;;;;;9.07;90.24;98921.46;422496;1305;112460;-40
2021/11/19 13:54:59;;;;;;;9.10;6.10;;;;;;;9.08;90.39;98923.07;422237;1305;108839;-41
2021/11/19 14:05:04;;;;;;;8.30;6.50;;;;;;;9.07;90.36;98922.27;422590;1305;99302;-40
2021/11/19 14:15:19;;;;;;;11.50;8.30;;;;;;;9.07;90.27;98922.30;422355;1306;108893;-41
2021/11/19 14:25:26;;;;;;;7.90;5.20;;;;;;;9.08;90.34;98918.20;422225;1305;98160;-40
2021/11/19 14:35:42;;;;;;;8.30;6.70;;;;;;;9.09;90.41;98922.25;422555;1305;111969;-39
2021/11/19 14:45:53;;;;;;;13.30;10.00;;;;;;;9.07;90.57;98926.00;422375;1309;108906;-40
2021/11/19 14:56:02;;;;;;;11.90;8.90;;;;;;;9.07;90.67;98918.50;422573;1306;99292;-42
2021/11/19 15:06:17;;;;;;;12.40;9.50;;;;;;;9.07;90.90;98927.71;422531;1308;109603;-41
2021/11/19 15:16:30;;;;;;;14.50;10.50;;;;;;;9.06;90.88;98926.22;422319;1306;99297;-42
2021/11/19 15:26:36;;;;;;;12.50;10.50;;;;;;;9.05;91.13;98916.48;422691;1306;112448;-40
2021/11/19 15:36:56;;;;;;;13.60;10.30;;;;;;;9.07;91.10;98917.27;422317;1305;108842;-41
2021/11/19 15:47:03;;;;;;;16.50;12.80;;;;;;;9.11;91.22;98929.98;422478;1312;99548;-41
2021/11/19 15:57:20;;;;;;;14.60;11.20;;;;;;;9.15;91.08;98929.75;422342;1305;108892;-41
2021/11/19 16:07:36;;;;;;;12.00;8.80;;;;;;;9.19;91.18;98933.34;422274;1306;97999;-41
2021/11/19 16:17:43;;;;;;;18.20;12.90;;;;;;;9.20;91.08;98939.50;422540;1305;112398;-40
2021/11/19 16:27:50;;;;;;;17.80;13.40;;;;;;;9.21;91.15;98943.06;422491;1310;108507;-41
2021/11/19 16:37:58;;;;;;;10.70;8.40;;;;;;;9.21;91.10;98941.04;422454;1305;99392;-40
2021/11/19 16:48:08;;;;;;;17.10;13.50;;;;;;;9.21;91.09;98934.95;422468;1306;109112;-40
2021/11/19 16:58:16;;;;;;;18.50;13.40;;;;;;;9.21;91.17;98937.02;422416;1311;99294;-41
2021/11/19 17:18:32;;;;;;;9.30;7.00;;;;;;;9.24;91.31;98947.37;418455;1307;5659205;-41
2021/11/19 17:28:43;;;;;;;11.90;8.80;;;;;;;9.24;91.38;98946.67;422559;1307;99197;-41
2021/11/19 17:38:53;;;;;;;8.90;6.90;;;;;;;9.23;91.44;98943.35;422615;1311;107874;-40
2021/11/19 17:49:14;;;;;;;5.70;5.00;;;;;;;9.22;91.46;98945.75;422540;1307;98111;-41
2021/11/19 17:59:24;;;;;;;5.70;5.10;;;;;;;9.22;91.51;98942.89;421762;1314;113028;-41
2021/11/19 18:09:32;;;;;;;5.10;4.40;;;;;;;9.22;91.38;98939.82;422698;1312;108861;-41
2021/11/19 18:19:41;;;;;;;6.30;4.90;;;;;;;9.22;91.49;98931.28;422270;1311;99323;-39
2021/11/19 18:29:51;;;;;;;6.50;5.50;;;;;;;9.22;91.50;98939.81;422605;1306;109066;-40
2021/11/19 18:40:00;;;;;;;17.30;9.10;;;;;;;9.23;91.74;98939.79;422149;1312;98502;-41
2021/11/19 18:50:12;;;;;;;24.40;13.20;;;;;;;9.24;91.68;98948.31;422581;1311;113286;-42
2021/11/19 19:00:22;;;;;;;8.40;7.20;;;;;;;9.28;91.65;98951.85;422279;1310;108987;-41
2021/11/19 19:10:31;;;;;;;7.40;6.30;;;;;;;9.31;91.54;98955.33;422672;1308;99296;-41
2021/11/19 19:20:43;;;;;;;19.80;16.50;;;;;;;9.31;91.51;98957.30;422485;1306;109391;-41
2021/11/19 19:41:01;;;;;;;11.70;7.20;;;;;;;9.29;91.64;98963.25;422275;1306;112672;-41
2021/11/19 19:51:09;;;;;;;6.20;5.40;;;;;;;9.30;91.53;98964.34;422450;1312;107833;-41
2021/11/19 20:11:22;;;;;;;5.90;5.30;;;;;;;9.32;91.16;98957.21;422464;1305;109127;-41
2021/11/19 20:21:31;;;;;;;7.60;6.10;;;;;;;9.31;91.16;98957.92;422500;1307;98083;-40
2021/11/19 20:31:41;;;;;;;9.80;6.30;;;;;;;9.29;90.95;98953.75;422286;1305;112207;-39
2021/11/19 20:51:59;;;;;;;11.30;8.30;;;;;;;9.26;90.88;98951.70;422342;1307;98924;-40
2021/11/19 21:02:11;;;;;;;18.90;12.60;;;;;;;9.25;90.75;98952.12;422650;1305;109508;-39
2021/11/19 21:12:22;;;;;;;21.10;16.30;;;;;;;9.22;90.69;98946.14;422594;1305;99186;-41
2021/11/19 21:22:33;;;;;;;13.30;10.30;;;;;;;9.24;90.70;98941.81;422405;1310;112400;-41
2021/11/19 21:32:41;;;;;;;23.00;14.10;;;;;;;9.28;90.44;98933.39;422740;1305;107461;-41
2021/11/19 21:42:49;;;;;;;28.70;15.60;;;;;;;9.27;90.03;98926.93;422224;1305;99324;-40
2021/11/19 21:53:02;;;;;;;20.50;12.60;;;;;;;9.27;89.79;98933.84;422421;1305;107912;-40
2021/11/19 22:03:08;;;;;;;9.30;8.00;;;;;;;9.29;89.55;98924.08;422349;1305;99586;-41
2021/11/19 22:13:16;;;;;;;13.90;10.20;;;;;;;9.30;89.13;98922.12;422504;1305;112475;-41
2021/11/19 22:23:24;;;;;;;23.00;12.20;;;;;;;9.32;89.15;98931.73;422616;1305;108887;-41
2021/11/19 22:33:31;;;;;;;11.90;8.40;;;;;;;9.32;88.95;98939.96;422277;1306;99287;-40
2021/11/19 22:43:38;;;;;;;18.10;11.70;;;;;;;9.32;88.44;98933.11;422571;1305;107008;-39
2021/11/19 22:53:47;;;;;;;17.90;11.20;;;;;;;9.33;88.36;98927.95;422297;1305;98036;-40
2021/11/19 23:03:55;;;;;;;15.70;10.10;;;;;;;9.34;88.00;98926.03;422236;1306;112554;-40
2021/11/19 23:14:09;;;;;;;12.70;7.50;;;;;;;9.32;87.64;98917.95;422492;1305;110304;-41
2021/11/19 23:24:19;;;;;;;18.80;11.20;;;;;;;9.31;87.02;98924.19;422136;1305;98903;-42
2021/11/19 23:34:31;;;;;;;11.80;5.60;;;;;;;9.34;86.70;98911.25;422661;1306;108949;-40
2021/11/19 23:44:38;;;;;;;11.30;7.20;;;;;;;9.36;86.45;98908.83;422331;1305;99614;-41
2021/11/19 23:54:46;;;;;;;8.20;4.40;;;;;;;9.37;86.14;98910.29;422406;1305;112385;-41
